Time;durP1;ratioP1;P1;durP2;ratioP2;P2;SDS_P1;SDS_P2;PMS_P1;PMS_P2;Temp;Humidity;BMP_temperature;BMP_pressure;BME280_temperature;BME280_humidity;BME280_pressure;Samples;Min_cycle;Max_cycle;Signal;HPM_P1;HPM_P2
2022/10/06 00:00:35;;;;;;;;;;;;;8.40;98710.40;;;;111089;1247;41149;-59
2022/10/06 00:03:22;;;;;;;;;;;;;8.40;98709.80;;;;111029;1248;41155;-59
2022/10/06 00:05:51;;;;;;;;;;;;;8.30;98705.80;;;;111088;1247;41900;-58
2022/10/06 00:08:19;;;;;;;;;;;;;8.20;98706.00;;;;111115;1247;41146;-59
2022/10/06 00:10:47;;;;;;;;;;;;;8.10;98710.20;;;;111082;1247;41156;-60
2022/10/06 00:13:15;;;;;;;;;;;;;7.94;98707.40;;;;111135;1247;41254;-60
2022/10/06 00:15:43;;;;;;;;;;;;;7.84;98709.60;;;;111185;1247;41618;-59
2022/10/06 00:18:13;;;;;;;;;;;;;7.80;98702.00;;;;111083;1247;41202;-58
2022/10/06 00:20:42;;;;;;;;;;;;;7.80;98700.00;;;;111109;1247;42064;-58
2022/10/06 00:23:10;;;;;;;;;;;;;7.80;98693.80;;;;111106;1247;41843;-59
2022/10/06 00:25:38;;;;;;;;;;;;;7.80;98696.80;;;;111139;1247;41171;-59
2022/10/06 00:28:08;;;;;;;;;;;;;7.80;98689.20;;;;111060;1248;41148;-59
2022/10/06 00:30:37;;;;;;;;;;;;;7.80;98691.20;;;;111088;1247;41136;-59
2022/10/06 00:33:06;;;;;;;;;;;;;7.80;98689.20;;;;111080;1247;41140;-59
2022/10/06 00:35:37;;;;;;;;;;;;;7.80;98691.00;;;;111054;1247;41137;-58
2022/10/06 00:38:05;;;;;;;;;;;;;7.80;98686.80;;;;110699;1250;41155;-58
2022/10/06 00:40:35;;;;;;;;;;;;;7.80;98686.00;;;;110868;1249;42323;-58
2022/10/06 00:43:04;;;;;;;;;;;;;7.80;98688.80;;;;110797;1251;41176;-60
2022/10/06 00:45:39;;;;;;;;;;;;;7.80;98684.40;;;;110864;1249;41177;-59
2022/10/06 00:48:27;;;;;;;;;;;;;7.80;98684.20;;;;110792;1248;41254;-59
2022/10/06 00:50:57;;;;;;;;;;;;;7.80;98680.20;;;;111093;1247;41609;-58
2022/10/06 00:53:25;;;;;;;;;;;;;7.80;98678.40;;;;110872;1249;41267;-58
2022/10/06 00:55:54;;;;;;;;;;;;;7.80;98674.80;;;;111007;1247;41996;-58
2022/10/06 00:58:23;;;;;;;;;;;;;7.80;98674.40;;;;111114;1247;41528;-59
2022/10/06 01:00:54;;;;;;;;;;;;;7.80;98676.80;;;;110683;1249;41248;-59
2022/10/06 01:03:22;;;;;;;;;;;;;7.80;98671.80;;;;111052;1247;41356;-60
2022/10/06 01:05:51;;;;;;;;;;;;;7.80;98670.20;;;;111115;1247;41254;-60
2022/10/06 01:08:20;;;;;;;;;;;;;7.80;98670.80;;;;111122;1247;41597;-60
2022/10/06 01:10:49;;;;;;;;;;;;;7.70;98673.20;;;;111098;1247;41133;-60
2022/10/06 01:13:17;;;;;;;;;;;;;7.70;98666.40;;;;111146;1246;42521;-60
2022/10/06 01:15:55;;;;;;;;;;;;;7.70;98660.60;;;;111097;1248;41183;-60
2022/10/06 01:18:26;;;;;;;;;;;;;7.70;98663.00;;;;111083;1248;41150;-60
2022/10/06 01:21:04;;;;;;;;;;;;;7.60;98665.20;;;;111084;1247;41730;-60
2022/10/06 01:23:33;;;;;;;;;;;;;7.60;98663.20;;;;111108;1248;41331;-60
2022/10/06 01:26:02;;;;;;;;;;;;;7.60;98663.60;;;;111134;1247;41604;-60
2022/10/06 01:28:31;;;;;;;;;;;;;7.60;98665.20;;;;110810;1247;41197;-60
2022/10/06 01:31:00;;;;;;;;;;;;;7.60;98666.80;;;;111024;1247;41187;-60
2022/10/06 01:33:30;;;;;;;;;;;;;7.60;98666.20;;;;110997;1249;41920;-60
2022/10/06 01:35:58;;;;;;;;;;;;;7.60;98663.60;;;;111031;1247;41261;-60
2022/10/06 01:38:26;;;;;;;;;;;;;7.60;98658.60;;;;111131;1247;41158;-60
2022/10/06 01:40:58;;;;;;;;;;;;;7.60;98651.40;;;;111095;1247;41248;-60
2022/10/06 01:43:27;;;;;;;;;;;;;7.60;98650.20;;;;110642;1249;41135;-60
2022/10/06 01:45:56;;;;;;;;;;;;;7.60;98651.80;;;;110596;1249;41130;-60
2022/10/06 01:48:25;;;;;;;;;;;;;7.60;98648.60;;;;110884;1249;41731;-60
2022/10/06 01:50:55;;;;;;;;;;;;;7.60;98653.20;;;;111101;1248;42247;-58
2022/10/06 01:53:24;;;;;;;;;;;;;7.54;98656.00;;;;110930;1249;41708;-60
2022/10/06 01:55:57;;;;;;;;;;;;;7.52;98657.40;;;;110902;1249;41170;-58
2022/10/06 01:58:25;;;;;;;;;;;;;7.52;98658.40;;;;110874;1249;41160;-58
2022/10/06 02:00:54;;;;;;;;;;;;;7.50;98665.60;;;;110955;1249;41527;-58
2022/10/06 02:03:22;;;;;;;;;;;;;7.50;98665.20;;;;111066;1247;42261;-58
2022/10/06 02:05:54;;;;;;;;;;;;;7.50;98666.20;;;;111067;1248;41465;-60
2022/10/06 02:08:23;;;;;;;;;;;;;7.40;98666.40;;;;111043;1247;41276;-60
2022/10/06 02:10:56;;;;;;;;;;;;;7.40;98666.40;;;;111042;1248;41616;-59
2022/10/06 02:13:26;;;;;;;;;;;;;7.36;98665.00;;;;111126;1247;41134;-59
2022/10/06 02:15:56;;;;;;;;;;;;;7.30;98666.80;;;;110952;1250;41699;-59
2022/10/06 02:18:24;;;;;;;;;;;;;7.30;98667.20;;;;111052;1247;41175;-59
2022/10/06 02:20:54;;;;;;;;;;;;;7.30;98669.60;;;;111072;1247;41259;-59
2022/10/06 02:23:23;;;;;;;;;;;;;7.20;98673.40;;;;110997;1249;41372;-60
2022/10/06 02:25:58;;;;;;;;;;;;;7.20;98674.60;;;;110849;1250;41446;-60
2022/10/06 02:28:27;;;;;;;;;;;;;7.10;98673.20;;;;111056;1249;41245;-59
2022/10/06 02:31:00;;;;;;;;;;;;;7.10;98667.60;;;;110752;1250;41679;-59
2022/10/06 02:33:27;;;;;;;;;;;;;7.10;98670.00;;;;111044;1248;42090;-59
2022/10/06 02:35:55;;;;;;;;;;;;;7.10;98667.80;;;;110677;1250;41383;-59
2022/10/06 02:38:23;;;;;;;;;;;;;7.04;98664.20;;;;111087;1247;41595;-58
2022/10/06 02:40:52;;;;;;;;;;;;;7.06;98664.00;;;;110696;1249;41741;-59
2022/10/06 02:43:21;;;;;;;;;;;;;7.02;98668.40;;;;111089;1247;41570;-59
2022/10/06 02:45:55;;;;;;;;;;;;;7.00;98664.00;;;;111081;1249;41672;-59
2022/10/06 02:48:25;;;;;;;;;;;;;7.00;98660.80;;;;110669;1249;41717;-58
2022/10/06 02:50:54;;;;;;;;;;;;;7.00;98660.20;;;;111053;1248;41299;-58
2022/10/06 02:53:24;;;;;;;;;;;;;7.00;98660.20;;;;110794;1249;41173;-58
2022/10/06 02:55:59;;;;;;;;;;;;;7.00;98661.80;;;;111042;1248;41164;-59
2022/10/06 02:58:29;;;;;;;;;;;;;7.00;98660.80;;;;111081;1247;42077;-57
2022/10/06 03:01:03;;;;;;;;;;;;;6.96;98665.60;;;;110693;1250;42561;-57
2022/10/06 03:03:33;;;;;;;;;;;;;6.92;98664.40;;;;110930;1250;41142;-60
2022/10/06 03:06:03;;;;;;;;;;;;;6.90;98667.60;;;;110951;1248;41301;-58
2022/10/06 03:08:32;;;;;;;;;;;;;6.90;98664.00;;;;110735;1251;41844;-58
2022/10/06 03:11:06;;;;;;;;;;;;;6.90;98659.40;;;;110728;1250;41275;-58
2022/10/06 03:13:33;;;;;;;;;;;;;6.90;98657.40;;;;110938;1249;41137;-58
2022/10/06 03:16:02;;;;;;;;;;;;;6.80;98656.40;;;;111084;1247;41127;-59
2022/10/06 03:18:34;;;;;;;;;;;;;6.80;98655.60;;;;111268;1247;41149;-60
2022/10/06 03:21:03;;;;;;;;;;;;;6.80;98659.00;;;;110946;1249;41015;-59
2022/10/06 03:23:31;;;;;;;;;;;;;6.70;98660.40;;;;111239;1247;41383;-59
2022/10/06 03:25:59;;;;;;;;;;;;;6.70;98663.20;;;;111147;1247;41159;-59
2022/10/06 03:28:27;;;;;;;;;;;;;6.70;98662.60;;;;111195;1247;42451;-59
2022/10/06 03:31:00;;;;;;;;;;;;;6.70;98664.00;;;;111204;1247;42012;-60
2022/10/06 03:33:30;;;;;;;;;;;;;6.60;98667.60;;;;111138;1247;41621;-58
2022/10/06 03:35:59;;;;;;;;;;;;;6.60;98675.80;;;;110884;1249;42356;-58
2022/10/06 03:38:28;;;;;;;;;;;;;6.60;98674.40;;;;110993;1249;41150;-58
2022/10/06 03:41:07;;;;;;;;;;;;;6.60;98675.40;;;;110957;1249;42092;-59
2022/10/06 03:43:36;;;;;;;;;;;;;6.60;98677.80;;;;111098;1249;41628;-59
2022/10/06 03:46:05;;;;;;;;;;;;;6.60;98676.60;;;;110862;1249;41590;-59
2022/10/06 03:48:33;;;;;;;;;;;;;6.60;98681.00;;;;111116;1247;41404;-58
2022/10/06 03:51:03;;;;;;;;;;;;;6.50;98674.40;;;;111017;1249;41231;-59
2022/10/06 03:53:31;;;;;;;;;;;;;6.50;98676.80;;;;111131;1247;41629;-59
2022/10/06 03:56:04;;;;;;;;;;;;;6.50;98674.80;;;;111098;1248;41238;-58
2022/10/06 03:58:33;;;;;;;;;;;;;6.44;98673.00;;;;110754;1250;41167;-58
2022/10/06 04:01:05;;;;;;;;;;;;;6.40;98671.80;;;;110929;1249;41253;-59
2022/10/06 04:03:34;;;;;;;;;;;;;6.40;98673.40;;;;111070;1249;41765;-59
2022/10/06 04:06:03;;;;;;;;;;;;;6.40;98671.20;;;;110849;1251;41722;-57
2022/10/06 04:08:32;;;;;;;;;;;;;6.40;98667.00;;;;110756;1249;41397;-59
2022/10/06 04:11:04;;;;;;;;;;;;;6.30;98668.80;;;;110670;1249;41322;-57
2022/10/06 04:13:32;;;;;;;;;;;;;6.30;98669.00;;;;110652;1251;41372;-56
2022/10/06 04:16:20;;;;;;;;;;;;;6.30;98670.40;;;;110609;1249;42175;-59
2022/10/06 04:18:49;;;;;;;;;;;;;6.30;98672.00;;;;110694;1249;41267;-57
2022/10/06 04:21:16;;;;;;;;;;;;;6.30;98672.20;;;;111014;1249;41150;-57
2022/10/06 04:23:45;;;;;;;;;;;;;6.30;98674.20;;;;110900;1249;41257;-57
2022/10/06 04:26:14;;;;;;;;;;;;;6.30;98675.00;;;;111256;1247;42169;-58
2022/10/06 04:28:46;;;;;;;;;;;;;6.30;98678.60;;;;111446;1247;41200;-58
2022/10/06 04:31:14;;;;;;;;;;;;;6.30;98677.80;;;;111248;1247;42281;-58
2022/10/06 04:33:44;;;;;;;;;;;;;6.30;98682.60;;;;111227;1247;41167;-58
2022/10/06 04:36:23;;;;;;;;;;;;;6.20;98675.00;;;;111169;1247;42121;-59
2022/10/06 04:39:00;;;;;;;;;;;;;6.24;98681.80;;;;111133;1247;42019;-60
2022/10/06 04:41:33;;;;;;;;;;;;;6.22;98680.60;;;;111134;1247;41155;-59
2022/10/06 04:44:02;;;;;;;;;;;;;6.26;98684.80;;;;111187;1247;41719;-58
2022/10/06 04:46:31;;;;;;;;;;;;;6.26;98677.60;;;;111187;1248;41133;-58
2022/10/06 04:49:15;;;;;;;;;;;;;6.28;98687.20;;;;111040;1249;41143;-58
2022/10/06 04:51:49;;;;;;;;;;;;;6.30;98685.40;;;;111170;1248;41331;-59
2022/10/06 04:54:22;;;;;;;;;;;;;6.30;98686.40;;;;111150;1248;41552;-58
2022/10/06 04:57:04;;;;;;;;;;;;;6.30;98692.80;;;;111131;1249;41339;-58
2022/10/06 05:02:19;;;;;;;;;;;;;6.30;98691.80;;;;111098;1247;41606;-58
2022/10/06 05:04:50;;;;;;;;;;;;;6.30;98694.40;;;;111089;1247;41611;-58
2022/10/06 05:07:19;;;;;;;;;;;;;6.30;98692.60;;;;111048;1249;41626;-59
2022/10/06 05:09:47;;;;;;;;;;;;;6.30;98694.40;;;;110741;1250;41156;-59
2022/10/06 05:12:14;;;;;;;;;;;;;6.30;98691.60;;;;110896;1250;41204;-59
2022/10/06 05:14:45;;;;;;;;;;;;;6.30;98694.80;;;;110754;1249;41258;-59
2022/10/06 05:17:13;;;;;;;;;;;;;6.30;98698.80;;;;110874;1250;41151;-59
2022/10/06 05:19:41;;;;;;;;;;;;;6.30;98700.20;;;;110863;1249;41257;-59
2022/10/06 05:22:08;;;;;;;;;;;;;6.30;98697.00;;;;110971;1247;41155;-59
2022/10/06 05:24:35;;;;;;;;;;;;;6.40;98704.80;;;;111060;1249;41132;-59
2022/10/06 05:27:03;;;;;;;;;;;;;6.40;98707.60;;;;111091;1247;41754;-59
2022/10/06 05:29:33;;;;;;;;;;;;;6.50;98711.40;;;;111136;1246;41568;-59
2022/10/06 05:32:00;;;;;;;;;;;;;6.50;98713.00;;;;110898;1247;41270;-59
2022/10/06 05:34:28;;;;;;;;;;;;;6.50;98718.00;;;;111118;1248;40919;-59
2022/10/06 05:36:55;;;;;;;;;;;;;6.50;98720.20;;;;110894;1250;41138;-59
2022/10/06 05:39:23;;;;;;;;;;;;;6.60;98724.40;;;;110890;1248;222009;-59
2022/10/06 05:41:54;;;;;;;;;;;;;6.60;98722.00;;;;111155;1247;41152;-60
2022/10/06 05:44:23;;;;;;;;;;;;;6.60;98724.20;;;;111100;1247;42369;-59
2022/10/06 05:46:50;;;;;;;;;;;;;6.60;98724.00;;;;111004;1249;42037;-59
2022/10/06 05:49:19;;;;;;;;;;;;;6.66;98728.20;;;;111045;1248;41523;-59
2022/10/06 05:51:54;;;;;;;;;;;;;6.70;98724.40;;;;111101;1247;41250;-59
2022/10/06 05:54:33;;;;;;;;;;;;;6.84;98729.60;;;;111187;1247;41963;-59
2022/10/06 05:57:00;;;;;;;;;;;;;7.00;98728.60;;;;111101;1248;41585;-59
2022/10/06 05:59:29;;;;;;;;;;;;;7.14;98727.00;;;;111028;1249;41155;-59
2022/10/06 06:01:58;;;;;;;;;;;;;7.30;98728.00;;;;111023;1250;41419;-60
2022/10/06 06:04:34;;;;;;;;;;;;;7.50;98737.20;;;;111070;1247;41176;-59
2022/10/06 06:07:01;;;;;;;;;;;;;7.70;98739.00;;;;111025;1247;41615;-59
2022/10/06 06:09:28;;;;;;;;;;;;;7.88;98733.80;;;;111039;1249;41519;-58
2022/10/06 06:12:00;;;;;;;;;;;;;8.02;98741.40;;;;111087;1249;41938;-60
2022/10/06 06:18:00;;;;;;;;;;;;;8.44;98740.40;;;;111386;1247;41242;-59
2022/10/06 06:20:27;;;;;;;;;;;;;8.60;98736.40;;;;111085;1249;41145;-59
2022/10/06 06:22:55;;;;;;;;;;;;;8.70;98734.60;;;;110713;1251;41163;-60
2022/10/06 06:25:25;;;;;;;;;;;;;8.80;98741.60;;;;110987;1249;41311;-58
2022/10/06 06:27:56;;;;;;;;;;;;;8.90;98744.40;;;;110935;1250;41633;-59
2022/10/06 06:30:24;;;;;;;;;;;;;9.00;98748.40;;;;111010;1249;42246;-58
2022/10/06 06:32:54;;;;;;;;;;;;;9.10;98753.20;;;;111028;1247;41191;-60
2022/10/06 06:35:21;;;;;;;;;;;;;9.28;98751.80;;;;111113;1247;41167;-59
2022/10/06 06:37:49;;;;;;;;;;;;;9.40;98758.40;;;;111169;1248;42205;-59
2022/10/06 06:40:16;;;;;;;;;;;;;9.50;98751.60;;;;111168;1247;41888;-59
2022/10/06 06:42:43;;;;;;;;;;;;;9.60;98747.00;;;;111242;1247;42302;-59
2022/10/06 06:45:33;;;;;;;;;;;;;9.86;98749.00;;;;110699;1248;41715;-59
2022/10/06 06:48:23;;;;;;;;;;;;;10.10;98750.00;;;;111132;1247;42077;-59
2022/10/06 06:50:59;;;;;;;;;;;;;10.20;98751.40;;;;110934;1249;41305;-59
2022/10/06 06:53:32;;;;;;;;;;;;;10.34;98745.80;;;;110984;1249;41266;-59
2022/10/06 06:56:00;;;;;;;;;;;;;10.40;98745.00;;;;110724;1250;41790;-59
2022/10/06 06:58:31;;;;;;;;;;;;;10.50;98746.40;;;;110765;1250;41143;-58
2022/10/06 07:01:06;;;;;;;;;;;;;10.56;98746.00;;;;110802;1249;41587;-59
2022/10/06 07:03:33;;;;;;;;;;;;;10.60;98744.40;;;;111101;1249;41278;-58
2022/10/06 07:06:21;;;;;;;;;;;;;10.80;98737.80;;;;111182;1248;41960;-59
2022/10/06 07:08:56;;;;;;;;;;;;;11.00;98739.80;;;;111140;1247;42543;-59
2022/10/06 07:11:25;;;;;;;;;;;;;11.20;98734.60;;;;110782;1250;41140;-59
2022/10/06 07:13:54;;;;;;;;;;;;;11.36;98735.20;;;;111145;1247;41258;-60
2022/10/06 07:27:29;;;;;;;;;;;;;12.30;98728.40;;;;110880;1249;41158;-60
2022/10/06 07:29:56;;;;;;;;;;;;;12.50;98726.40;;;;110881;1249;41203;-60
2022/10/06 07:32:24;;;;;;;;;;;;;12.80;98725.00;;;;111118;1247;41253;-60
2022/10/06 07:34:53;;;;;;;;;;;;;13.00;98725.40;;;;110926;1250;41716;-60
2022/10/06 07:37:20;;;;;;;;;;;;;13.20;98720.60;;;;110925;1250;41269;-60
2022/10/06 07:39:48;;;;;;;;;;;;;13.48;98721.80;;;;111052;1247;42124;-60
2022/10/06 07:42:16;;;;;;;;;;;;;13.60;98720.40;;;;111061;1248;41142;-60
2022/10/06 07:45:36;;;;;;;;;;;;;13.70;98716.40;;;;111070;1247;42163;-60
2022/10/06 07:47:33;;;;;;;;;;;;;13.80;98717.00;;;;111139;1247;41175;-60
2022/10/06 07:50:01;;;;;;;;;;;;;13.90;98709.80;;;;111075;1247;41687;-60
2022/10/06 07:52:28;;;;;;;;;;;;;14.02;98710.20;;;;111042;1247;41159;-60
2022/10/06 07:54:57;;;;;;;;;;;;;14.18;98714.40;;;;110953;1250;41616;-60
2022/10/06 07:57:59;;;;;;;;;;;;;14.38;98711.60;;;;111002;1248;41136;-60
2022/10/06 08:00:27;;;;;;;;;;;;;14.48;98719.00;;;;111058;1247;41566;-60
2022/10/06 08:02:55;;;;;;;;;;;;;14.60;98707.80;;;;111169;1248;41156;-60
2022/10/06 08:05:23;;;;;;;;;;;;;14.72;98706.60;;;;110958;1249;41260;-60
2022/10/06 08:07:51;;;;;;;;;;;;;14.94;98697.60;;;;110876;1250;41140;-60
2022/10/06 08:10:19;;;;;;;;;;;;;15.20;98703.00;;;;111014;1249;41157;-60
2022/10/06 08:12:49;;;;;;;;;;;;;15.60;98701.20;;;;110945;1249;42695;-60
2022/10/06 08:15:17;;;;;;;;;;;;;16.00;98698.20;;;;111014;1249;41625;-60
2022/10/06 08:17:44;;;;;;;;;;;;;16.30;98692.00;;;;110695;1249;40882;-58
2022/10/06 08:20:12;;;;;;;;;;;;;16.42;98691.60;;;;110986;1248;41258;-59
2022/10/06 08:22:40;;;;;;;;;;;;;16.62;98691.40;;;;110953;1250;42268;-60
2022/10/06 08:25:08;;;;;;;;;;;;;16.90;98693.40;;;;110995;1250;41143;-61
2022/10/06 08:27:37;;;;;;;;;;;;;17.10;98688.00;;;;110727;1250;41299;-59
2022/10/06 08:30:06;;;;;;;;;;;;;17.30;98690.00;;;;110714;1250;41719;-59
2022/10/06 08:32:33;;;;;;;;;;;;;17.40;98686.80;;;;111055;1249;42045;-60
2022/10/06 08:35:00;;;;;;;;;;;;;17.62;98686.40;;;;111125;1247;41574;-60
2022/10/06 08:37:28;;;;;;;;;;;;;17.86;98684.80;;;;111148;1247;41156;-61
2022/10/06 08:39:56;;;;;;;;;;;;;18.08;98677.20;;;;111097;1249;41210;-61
2022/10/06 08:42:23;;;;;;;;;;;;;18.20;98676.20;;;;111151;1247;41320;-59
2022/10/06 08:44:58;;;;;;;;;;;;;18.64;98678.40;;;;110825;1250;42052;-60
2022/10/06 08:47:29;;;;;;;;;;;;;19.20;98673.60;;;;111047;1248;41827;-60
2022/10/06 08:49:56;;;;;;;;;;;;;19.62;98670.40;;;;111247;1249;41545;-61
2022/10/06 08:52:35;;;;;;;;;;;;;20.10;98670.00;;;;111353;1247;41724;-61
2022/10/06 08:55:25;;;;;;;;;;;;;20.78;98666.40;;;;110827;1249;41197;-60
2022/10/06 08:58:21;;;;;;;;;;;;;21.32;98670.40;;;;111022;1248;41654;-60
2022/10/06 09:00:55;;;;;;;;;;;;;21.56;98666.00;;;;110628;1250;41729;-60
2022/10/06 09:03:23;;;;;;;;;;;;;22.10;98664.00;;;;111089;1247;41148;-60
2022/10/06 09:05:56;;;;;;;;;;;;;22.68;98661.20;;;;110809;1249;41129;-61
2022/10/06 09:08:50;;;;;;;;;;;;;23.06;98665.00;;;;111083;1247;41512;-61
2022/10/06 09:11:24;;;;;;;;;;;;;22.66;98665.00;;;;111059;1247;41009;-60
2022/10/06 09:13:57;;;;;;;;;;;;;22.66;98661.40;;;;111064;1248;41174;-62
2022/10/06 09:16:27;;;;;;;;;;;;;21.96;98660.80;;;;111095;1247;42675;-60
2022/10/06 09:18:57;;;;;;;;;;;;;21.80;98660.00;;;;111099;1247;41820;-60
2022/10/06 09:21:45;;;;;;;;;;;;;22.08;98653.40;;;;111128;1248;43297;-60
2022/10/06 09:24:13;;;;;;;;;;;;;22.76;98649.80;;;;111131;1248;41267;-61
2022/10/06 09:26:44;;;;;;;;;;;;;23.30;98640.40;;;;110800;1249;41741;-61
2022/10/06 09:29:13;;;;;;;;;;;;;23.80;98641.00;;;;111082;1247;41706;-61
2022/10/06 09:31:42;;;;;;;;;;;;;24.50;98642.60;;;;111108;1248;41690;-60
2022/10/06 09:34:09;;;;;;;;;;;;;25.02;98638.40;;;;111034;1248;42532;-60
2022/10/06 09:36:58;;;;;;;;;;;;;25.64;98635.00;;;;111128;1247;41609;-60
2022/10/06 09:39:35;;;;;;;;;;;;;26.40;98632.80;;;;111147;1247;42007;-60
2022/10/06 09:42:08;;;;;;;;;;;;;27.10;98632.80;;;;111127;1248;41153;-60
2022/10/06 09:44:43;;;;;;;;;;;;;27.20;98625.80;;;;111108;1248;41129;-60
2022/10/06 09:47:30;;;;;;;;;;;;;27.00;98624.80;;;;111067;1247;41145;-60
2022/10/06 09:50:02;;;;;;;;;;;;;26.52;98631.80;;;;111063;1248;41374;-60
2022/10/06 09:52:29;;;;;;;;;;;;;26.24;98624.80;;;;111067;1247;41145;-59
2022/10/06 09:55:27;;;;;;;;;;;;;26.40;98621.40;;;;111067;1247;41151;-59
2022/10/06 09:57:55;;;;;;;;;;;;;27.04;98617.00;;;;111031;1248;41148;-60
2022/10/06 10:00:29;;;;;;;;;;;;;28.08;98616.00;;;;111085;1249;41156;-60
2022/10/06 10:02:59;;;;;;;;;;;;;29.30;98609.00;;;;111101;1248;41891;-60
2022/10/06 10:05:33;;;;;;;;;;;;;30.02;98612.20;;;;111087;1247;41661;-60
2022/10/06 10:08:13;;;;;;;;;;;;;30.68;98613.20;;;;111121;1248;41124;-60
2022/10/06 10:10:40;;;;;;;;;;;;;31.22;98614.40;;;;111067;1249;41772;-61
2022/10/06 10:13:19;;;;;;;;;;;;;31.10;98609.60;;;;111055;1248;41600;-61
2022/10/06 10:15:52;;;;;;;;;;;;;31.06;98608.00;;;;111116;1247;42072;-60
2022/10/06 10:18:25;;;;;;;;;;;;;31.10;98605.00;;;;111076;1247;41696;-61
2022/10/06 10:21:04;;;;;;;;;;;;;31.04;98604.80;;;;111078;1249;42093;-61
2022/10/06 10:23:37;;;;;;;;;;;;;30.82;98606.00;;;;111097;1248;41722;-61
2022/10/06 10:26:06;;;;;;;;;;;;;30.90;98602.00;;;;110892;1249;42204;-61
2022/10/06 10:28:46;;;;;;;;;;;;;31.48;98597.40;;;;111051;1247;41258;-60
2022/10/06 10:31:19;;;;;;;;;;;;;32.40;98594.60;;;;111057;1247;41393;-60
2022/10/06 10:33:53;;;;;;;;;;;;;33.34;98593.80;;;;111120;1248;42196;-60
2022/10/06 10:36:37;;;;;;;;;;;;;33.90;98593.40;;;;111103;1248;41368;-61
2022/10/06 10:39:05;;;;;;;;;;;;;34.50;98591.40;;;;111077;1247;41611;-61
2022/10/06 10:41:41;;;;;;;;;;;;;35.24;98588.60;;;;111120;1247;41255;-61
2022/10/06 10:44:09;;;;;;;;;;;;;35.78;98586.00;;;;111092;1248;41252;-60
2022/10/06 10:46:38;;;;;;;;;;;;;36.20;98584.60;;;;111040;1250;41160;-61
2022/10/06 10:49:17;;;;;;;;;;;;;36.70;98591.40;;;;111082;1249;42268;-60
2022/10/06 10:51:50;;;;;;;;;;;;;36.98;98583.20;;;;111089;1248;41137;-61
2022/10/06 10:54:18;;;;;;;;;;;;;37.26;98581.60;;;;111036;1248;41147;-61
2022/10/06 10:56:49;;;;;;;;;;;;;37.36;98582.40;;;;111031;1247;41191;-61
2022/10/06 10:59:38;;;;;;;;;;;;;37.50;98582.00;;;;110770;1249;42259;-61
2022/10/06 11:02:12;;;;;;;;;;;;;37.70;98578.00;;;;111088;1248;41124;-61
2022/10/06 11:04:46;;;;;;;;;;;;;37.78;98576.20;;;;111088;1247;41128;-61
2022/10/06 11:07:31;;;;;;;;;;;;;37.90;98569.80;;;;111060;1248;41301;-61
2022/10/06 11:10:05;;;;;;;;;;;;;38.24;98573.40;;;;111006;1249;41267;-61
2022/10/06 11:12:36;;;;;;;;;;;;;38.60;98571.80;;;;111084;1247;41687;-60
2022/10/06 11:15:15;;;;;;;;;;;;;38.86;98572.20;;;;111081;1247;41680;-60
2022/10/06 11:17:48;;;;;;;;;;;;;39.06;98569.20;;;;110954;1249;41142;-61
2022/10/06 11:20:17;;;;;;;;;;;;;39.30;98563.60;;;;111039;1248;41156;-61
2022/10/06 11:22:47;;;;;;;;;;;;;39.62;98563.00;;;;111083;1249;41727;-61
2022/10/06 11:25:18;;;;;;;;;;;;;39.96;98558.00;;;;111066;1247;42428;-61
2022/10/06 11:27:49;;;;;;;;;;;;;40.20;98557.40;;;;111066;1248;41158;-61
2022/10/06 11:30:18;;;;;;;;;;;;;40.20;98557.80;;;;111098;1249;41212;-60
2022/10/06 11:33:05;;;;;;;;;;;;;40.14;98553.20;;;;110979;1249;41155;-60
2022/10/06 11:35:34;;;;;;;;;;;;;40.00;98554.20;;;;111056;1248;42530;-60
2022/10/06 11:38:04;;;;;;;;;;;;;40.30;98551.20;;;;111078;1249;41297;-60
2022/10/06 11:40:54;;;;;;;;;;;;;40.58;98556.00;;;;111095;1247;41730;-60
2022/10/06 11:43:33;;;;;;;;;;;;;40.80;98552.20;;;;111100;1247;41251;-60
2022/10/06 11:46:12;;;;;;;;;;;;;40.96;98550.20;;;;111108;1249;41315;-60
2022/10/06 11:48:41;;;;;;;;;;;;;41.04;98550.20;;;;111068;1248;41584;-60
2022/10/06 11:51:29;;;;;;;;;;;;;40.68;98548.40;;;;111080;1246;41230;-60
2022/10/06 11:53:57;;;;;;;;;;;;;40.60;98547.00;;;;111062;1248;41766;-60
2022/10/06 11:56:37;;;;;;;;;;;;;40.06;98544.60;;;;110895;1250;41142;-60
2022/10/06 11:59:08;;;;;;;;;;;;;39.30;98543.00;;;;111060;1248;41628;-60
2022/10/06 12:01:37;;;;;;;;;;;;;37.68;98547.20;;;;110718;1247;41146;-60
2022/10/06 12:04:07;;;;;;;;;;;;;37.50;98542.00;;;;111124;1247;41335;-60
2022/10/06 12:06:41;;;;;;;;;;;;;37.80;98545.40;;;;111122;1248;41124;-60
2022/10/06 12:09:38;;;;;;;;;;;;;38.32;98544.20;;;;111136;1248;41747;-60
2022/10/06 12:12:16;;;;;;;;;;;;;39.20;98541.80;;;;110982;1248;41168;-60
2022/10/06 12:15:02;;;;;;;;;;;;;39.80;98545.80;;;;111149;1247;41598;-60
2022/10/06 12:17:53;;;;;;;;;;;;;40.28;98540.40;;;;111047;1250;41128;-61
2022/10/06 12:20:39;;;;;;;;;;;;;40.10;98546.00;;;;111150;1247;41509;-61
2022/10/06 12:23:18;;;;;;;;;;;;;40.32;98544.60;;;;111096;1248;41147;-60
2022/10/06 12:26:06;;;;;;;;;;;;;40.38;98542.40;;;;111201;1248;41153;-60
2022/10/06 12:28:38;;;;;;;;;;;;;40.06;98540.80;;;;111095;1248;41135;-60
2022/10/06 12:31:05;;;;;;;;;;;;;40.00;98542.80;;;;110770;1249;41181;-61
2022/10/06 12:33:39;;;;;;;;;;;;;39.90;98540.40;;;;111079;1248;41610;-60
2022/10/06 12:36:19;;;;;;;;;;;;;40.00;98541.60;;;;111069;1248;41608;-60
2022/10/06 12:39:03;;;;;;;;;;;;;40.10;98541.20;;;;111026;1250;41364;-60
2022/10/06 12:41:50;;;;;;;;;;;;;40.30;98541.20;;;;110740;1250;41879;-61
2022/10/06 12:44:35;;;;;;;;;;;;;40.68;98542.20;;;;111050;1250;41161;-62
2022/10/06 12:47:05;;;;;;;;;;;;;40.42;98542.80;;;;110911;1250;41144;-61
2022/10/06 12:49:44;;;;;;;;;;;;;40.00;98540.00;;;;110814;1250;41618;-61
2022/10/06 12:52:14;;;;;;;;;;;;;39.34;98545.80;;;;111036;1250;41867;-61
2022/10/06 12:54:47;;;;;;;;;;;;;38.48;98543.20;;;;111022;1250;41933;-62
2022/10/06 12:57:18;;;;;;;;;;;;;37.68;98546.20;;;;110996;1250;41146;-62
2022/10/06 12:59:46;;;;;;;;;;;;;37.00;98545.20;;;;111074;1248;41711;-61
2022/10/06 13:02:15;;;;;;;;;;;;;36.60;98544.20;;;;111074;1248;42179;-61
2022/10/06 13:04:43;;;;;;;;;;;;;36.76;98553.20;;;;111089;1249;42031;-61
2022/10/06 13:07:24;;;;;;;;;;;;;36.90;98554.20;;;;111080;1248;41283;-60
2022/10/06 13:09:52;;;;;;;;;;;;;37.16;98541.80;;;;111060;1249;41922;-61
2022/10/06 13:12:20;;;;;;;;;;;;;37.60;98537.20;;;;111032;1248;41785;-61
2022/10/06 13:14:47;;;;;;;;;;;;;37.84;98540.20;;;;111107;1248;41164;-60
2022/10/06 13:17:14;;;;;;;;;;;;;38.16;98533.20;;;;111060;1248;42310;-61
2022/10/06 13:19:42;;;;;;;;;;;;;38.50;98526.60;;;;110937;1251;41159;-61
2022/10/06 13:22:11;;;;;;;;;;;;;38.70;98526.40;;;;111015;1249;41671;-60
2022/10/06 13:24:38;;;;;;;;;;;;;38.60;98532.60;;;;110942;1250;41472;-61
2022/10/06 13:27:05;;;;;;;;;;;;;38.40;98533.20;;;;110703;1250;41128;-61
2022/10/06 13:29:32;;;;;;;;;;;;;38.30;98536.60;;;;111028;1247;41181;-60
2022/10/06 13:32:01;;;;;;;;;;;;;38.30;98538.20;;;;111087;1248;42078;-62
2022/10/06 13:34:33;;;;;;;;;;;;;38.20;98532.20;;;;111036;1249;41909;-61
2022/10/06 13:37:00;;;;;;;;;;;;;38.10;98528.80;;;;111059;1248;41135;-61
2022/10/06 13:39:31;;;;;;;;;;;;;38.06;98523.60;;;;110813;1250;41195;-61
2022/10/06 13:42:02;;;;;;;;;;;;;38.10;98524.40;;;;111025;1248;41155;-61
2022/10/06 13:44:30;;;;;;;;;;;;;38.10;98524.80;;;;111085;1248;41162;-61
2022/10/06 13:47:00;;;;;;;;;;;;;38.00;98526.00;;;;111110;1248;42354;-60
2022/10/06 13:49:50;;;;;;;;;;;;;37.90;98535.60;;;;111093;1248;41212;-60
2022/10/06 13:52:23;;;;;;;;;;;;;37.40;98536.40;;;;110992;1248;41888;-61
2022/10/06 13:54:51;;;;;;;;;;;;;36.80;98540.20;;;;111060;1248;41140;-60
2022/10/06 13:57:37;;;;;;;;;;;;;36.14;98538.00;;;;111055;1248;41169;-60
2022/10/06 14:00:24;;;;;;;;;;;;;35.26;98542.20;;;;111041;1248;42231;-60
2022/10/06 14:02:55;;;;;;;;;;;;;34.54;98543.40;;;;111035;1248;41273;-60
2022/10/06 14:05:23;;;;;;;;;;;;;34.00;98542.00;;;;111077;1247;41306;-61
2022/10/06 14:07:51;;;;;;;;;;;;;33.48;98542.60;;;;111110;1248;41393;-60
2022/10/06 14:10:23;;;;;;;;;;;;;32.72;98543.80;;;;110932;1250;41617;-61
2022/10/06 14:12:50;;;;;;;;;;;;;32.22;98544.20;;;;111087;1248;41313;-62
2022/10/06 14:15:21;;;;;;;;;;;;;31.60;98548.60;;;;111037;1249;42057;-61
2022/10/06 14:17:52;;;;;;;;;;;;;31.02;98553.20;;;;111112;1248;41255;-61